Weather History for Osceola, WI

Change the Weather History Date:

Sunday, January 12, 2014

  Actual Average (KMSP) Record (KMSP)
Temperature  
Mean Temperature 29 °F 15 °F  
Max Temperature 39 °F 23 °F 48 °F (1987)
Min Temperature 19 °F 7 °F -31 °F (1912)
Degree Days  
Heating Degree Days 36 50  
Month to date heating degree days 594  
Since 1 July heating degree days 3617  
Cooling Degree Days 0 0  
Month to date cooling degree days 0  
Year to date cooling degree days 0  
Moisture  
Dew Point 27 °F    
Average Humidity 85    
Maximum Humidity 100    
Minimum Humidity 69    
Precipitation  
Precipitation 0.01 in 0.03 in 0.70 in (1935)
Month to date precipitation 0.38  
Year to date precipitation 0.38  
Snow  
Snow 0.00 in 0.40 in 8.70 in (2000)
Month to date snowfall 4.8  
Since 1 July snowfall 26.6  
Snow Depth -    
Sea Level Pressure  
Sea Level Pressure 29.47 in    
Wind  
Wind Speed 7 mph (South)    
Max Wind Speed 13 mph    
Max Gust Speed 18 mph    
Visibility 10 miles    
Events      
T = Trace of Precipitation, MM = Missing Value Source: NWS Daily Summary

Daily Weather History Graph

Daily Weather History Graph

Search for Another Location

Airport:

Trip Planner

Search our weather history database for the weather conditions in past years. The results will help you decide how hot, cold, wet, or windy it might be!

Date:

Astronomy

Jan. 12, 2014 Rise Set
Actual Time 7:47 AM CST 4:50 PM CST
Civil Twilight 7:14 AM CST 5:23 PM CST
Nautical Twilight 6:37 AM CST 6:00 PM CST
Astronomical Twilight 6:02 AM CST 6:36 PM CST
Moon 2:20 PM CST (1/12) 4:45 AM CST (1/12)
Length of Visible Light 10h 09m
Length of Day
9h 02m
Waxing Gibbous, 90% of the Moon is Illuminated
Jan 12
Waxing Gibbous
Jan 15
Full
Jan 23
Last Quarter
Jan 30
New
Feb 6
First Quarter

Hourly Weather History & Observations

Time (CST) Temp. Windchill Dew Point Humidity Pressure Visibility Wind Dir Wind Speed Gust Speed Precip Events Conditions
12:15 AM 19.6 °F 11.7 °F 19.2 °F 99% 29.65 in 4.0 mi South 5.8 mph - N/A   Clear
12:35 AM 19.4 °F 12.8 °F 19.4 °F 100% 29.64 in 4.0 mi SSE 4.6 mph - N/A   Mostly Cloudy
12:55 AM 21.2 °F 14.9 °F 21.2 °F 100% 29.64 in 5.0 mi SSE 4.6 mph - N/A   Overcast
1:15 AM 22.5 °F 15.1 °F 22.5 °F 100% 29.63 in 5.0 mi SSE 5.8 mph - N/A   Overcast
1:35 AM 22.3 °F 14.9 °F 22.3 °F 100% 29.62 in 7.0 mi SSE 5.8 mph - N/A   Overcast
1:55 AM 22.8 °F 14.5 °F 22.8 °F 100% 29.61 in 7.0 mi SSE 6.9 mph - N/A   Mostly Cloudy
2:15 AM 22.8 °F 13.6 °F 22.8 °F 100% 29.60 in 7.0 mi SSE 8.1 mph - N/A   Scattered Clouds
2:35 AM 23.0 °F 13.9 °F 23.0 °F 100% 29.60 in 7.0 mi SSE 8.1 mph - N/A   Clear
2:55 AM 23.7 °F 14.0 °F 23.7 °F 100% 29.59 in 10.0 mi SSE 9.2 mph - N/A   Clear
3:15 AM 24.6 °F 15.1 °F 24.6 °F 100% 29.58 in 10.0 mi SSE 9.2 mph - N/A   Clear
3:35 AM 25.2 °F 19.5 °F 24.8 °F 99% 29.57 in 10.0 mi SSE 4.6 mph - N/A   Clear
3:55 AM 24.8 °F 16.1 °F 23.5 °F 95% 29.56 in 10.0 mi ESE 8.1 mph - N/A   Clear
4:15 AM 24.8 °F 15.3 °F 23.7 °F 96% 29.54 in 10.0 mi ESE 9.2 mph - N/A   Scattered Clouds
4:35 AM 24.8 °F 15.3 °F 23.5 °F 95% 29.51 in 10.0 mi ESE 9.2 mph - N/A   Mostly Cloudy
4:55 AM 25.3 °F 14.1 °F 23.5 °F 93% 29.49 in 10.0 mi ESE 12.7 mph - N/A   Mostly Cloudy
5:15 AM 26.2 °F 16.4 °F 23.9 °F 91% 29.48 in 10.0 mi ESE 10.4 mph - N/A   Scattered Clouds
5:35 AM 27.3 °F 17.1 °F 24.4 °F 89% 29.47 in 10.0 mi ESE 11.5 mph - N/A   Mostly Cloudy
5:55 AM 28.4 °F 19.1 °F 24.8 °F 86% 29.46 in 10.0 mi SE 10.4 mph - N/A   Overcast
6:15 AM 29.1 °F 20.6 °F 24.8 °F 84% 29.45 in 10.0 mi SE 9.2 mph - N/A   Overcast
6:35 AM 29.3 °F 20.8 °F 25.0 °F 84% 29.44 in 10.0 mi SE 9.2 mph - N/A   Overcast
6:55 AM 29.8 °F 20.3 °F 25.3 °F 83% 29.43 in 10.0 mi SE 11.5 mph 16.1 mph N/A   Overcast
7:15 AM 30.0 °F 20.5 °F 25.7 °F 84% 29.43 in 10.0 mi SE 11.5 mph - N/A   Overcast
7:35 AM 30.9 °F 21.7 °F 25.7 °F 81% 29.43 in 10.0 mi SE 11.5 mph - N/A   Overcast
7:55 AM 31.1 °F 22.4 °F 26.2 °F 82% 29.42 in 10.0 mi SE 10.4 mph - N/A   Overcast
8:15 AM 31.1 °F 22.4 °F 26.2 °F 82% 29.42 in 10.0 mi SE 10.4 mph - N/A   Scattered Clouds
8:35 AM 31.3 °F 22.7 °F 26.4 °F 82% 29.41 in 10.0 mi SE 10.4 mph 18.4 mph N/A   Clear
8:55 AM 31.1 °F 22.4 °F 26.6 °F 83% 29.39 in 10.0 mi SE 10.4 mph - N/A   Clear
9:15 AM 31.1 °F 23.7 °F 26.6 °F 83% 29.42 in 10.0 mi SSE 8.1 mph - N/A   Clear
9:35 AM 31.1 °F 23.1 °F 26.4 °F 83% 29.42 in 10.0 mi SSE 9.2 mph - N/A   Clear
9:55 AM 32.0 °F 26.4 °F 26.6 °F 80% 29.41 in 10.0 mi SSE 5.8 mph - N/A   Clear
10:15 AM 33.1 °F 26.1 °F 27.3 °F 79% 29.41 in 10.0 mi SSE 8.1 mph - N/A   Clear
10:35 AM 34.0 °F 26.0 °F 27.9 °F 78% 29.41 in 10.0 mi South 10.4 mph - N/A   Clear
10:55 AM 34.2 °F 29.0 °F 27.7 °F 77% 29.41 in 10.0 mi South 5.8 mph - N/A   Clear
11:15 AM 35.8 °F 30.9 °F 28.4 °F 75% 29.40 in 10.0 mi South 5.8 mph - N/A   Clear
11:35 AM 36.1 °F 29.3 °F 28.8 °F 75% 29.38 in 10.0 mi South 9.2 mph - 0.01 in   Clear
11:55 AM 36.5 °F 32.7 °F 29.1 °F 75% 29.39 in 10.0 mi SSW 4.6 mph - 0.01 in   Clear
12:15 PM 37.4 °F 32.1 °F 29.1 °F 72% 29.39 in 10.0 mi SSW 6.9 mph - N/A   Scattered Clouds
12:35 PM 37.8 °F 33.3 °F 29.3 °F 72% 29.39 in 10.0 mi SSW 5.8 mph - N/A   Mostly Cloudy
12:55 PM 38.3 °F 34.8 °F 29.5 °F 71% 29.39 in 10.0 mi SSW 4.6 mph - N/A   Overcast
1:15 PM 38.5 °F 35.0 °F 29.5 °F 70% 29.38 in 10.0 mi South 4.6 mph - N/A   Overcast
1:35 PM 38.5 °F 36.1 °F 30.0 °F 72% 29.38 in 10.0 mi SSE 3.5 mph - N/A   Overcast
1:55 PM 37.8 °F 32.5 °F 30.2 °F 74% 29.40 in 10.0 mi WSW 6.9 mph - N/A   Overcast
2:15 PM 38.3 °F 35.9 °F 30.2 °F 73% 29.40 in 10.0 mi SSW 3.5 mph - N/A   Overcast
2:35 PM 39.2 °F 34.2 °F 29.8 °F 69% 29.40 in 10.0 mi South 6.9 mph - N/A   Mostly Cloudy
2:55 PM 38.7 °F 34.3 °F 30.2 °F 72% 29.41 in 10.0 mi SSE 5.8 mph - N/A   Scattered Clouds
3:15 PM 38.3 °F 33.9 °F 30.6 °F 74% 29.41 in 10.0 mi South 5.8 mph - N/A   Clear
3:35 PM 37.2 °F 32.6 °F 30.7 °F 77% 29.43 in 10.0 mi WSW 5.8 mph - N/A   Clear
3:55 PM 37.4 °F 33.8 °F 30.4 °F 76% 29.43 in 10.0 mi WSW 4.6 mph - N/A   Clear
4:15 PM 37.4 °F 34.9 °F 30.2 °F 75% 29.43 in 10.0 mi SW 3.5 mph - N/A   Clear
4:35 PM 36.5 °F 32.7 °F 30.2 °F 78% 29.44 in 10.0 mi South 4.6 mph - N/A   Clear
4:55 PM 34.7 °F 30.6 °F 30.2 °F 84% 29.45 in 10.0 mi South 4.6 mph - N/A   Clear
5:15 PM 35.8 °F 33.0 °F 30.2 °F 80% 29.46 in 10.0 mi SSW 3.5 mph - N/A   Clear
5:35 PM 35.2 °F 31.2 °F 29.8 °F 81% 29.47 in 10.0 mi SW 4.6 mph - N/A   Clear
5:55 PM 35.6 °F 31.7 °F 30.2 °F 81% 29.46 in 10.0 mi South 4.6 mph - N/A   Clear
6:15 PM 35.8 °F 33.0 °F 30.0 °F 80% 29.47 in 10.0 mi SSW 3.5 mph - N/A   Clear
6:35 PM 34.5 °F 31.6 °F 29.7 °F 82% 29.47 in 10.0 mi South 3.5 mph - N/A   Clear
6:55 PM 36.0 °F 30.3 °F 30.4 °F 80% 29.47 in 10.0 mi SW 6.9 mph - N/A   Clear
7:15 PM 35.4 °F 32.6 °F 30.0 °F 81% 29.48 in 10.0 mi SW 3.5 mph - N/A   Clear
7:35 PM 34.9 °F 30.8 °F 30.2 °F 83% 29.48 in 10.0 mi SSW 4.6 mph - N/A   Clear
7:55 PM 35.1 °F 31.0 °F 30.2 °F 82% 29.48 in 10.0 mi SSW 4.6 mph - N/A   Clear
8:15 PM 35.1 °F 31.0 °F 30.6 °F 84% 29.49 in 10.0 mi South 4.6 mph - N/A   Clear
8:35 PM 35.1 °F 31.0 °F 30.7 °F 84% 29.49 in 10.0 mi SSW 4.6 mph - N/A   Clear
8:55 PM 32.7 °F 28.3 °F 29.3 °F 87% 29.49 in 10.0 mi South 4.6 mph - N/A   Clear
9:15 PM 32.0 °F 27.5 °F 29.8 °F 92% 29.50 in 10.0 mi South 4.6 mph - N/A   Clear
9:35 PM 31.5 °F 28.1 °F 29.5 °F 92% 29.51 in 10.0 mi SW 3.5 mph - N/A   Clear
9:55 PM 34.0 °F 29.8 °F 30.0 °F 85% 29.51 in 10.0 mi SSW 4.6 mph - N/A   Clear
10:15 PM 33.8 °F 30.8 °F 29.8 °F 85% 29.51 in 10.0 mi SW 3.5 mph - N/A   Clear
10:35 PM 31.6 °F - 27.7 °F 85% 29.51 in 10.0 mi Calm Calm - N/A   Clear
10:55 PM 28.6 °F - 26.8 °F 93% 29.50 in 10.0 mi Calm Calm - N/A   Clear
11:15 PM 28.0 °F - 26.6 °F 94% 29.50 in 10.0 mi Calm Calm - N/A   Clear
11:35 PM 28.8 °F - 27.0 °F 93% 29.51 in 10.0 mi Calm Calm - N/A   Clear
11:55 PM 29.8 °F 24.9 °F 28.2 °F 94% 29.50 in 10.0 mi WSW 4.6 mph - N/A   Clear